createdAt,value
2016-12-12T00:00:11.135Z,94.38
2016-12-12T00:00:38.959Z,93.99
2016-12-12T00:01:06.964Z,94.18
2016-12-12T00:01:34.822Z,93.9
2016-12-12T00:02:02.690Z,93.99
2016-12-12T00:02:30.564Z,93.99
2016-12-12T00:02:58.435Z,93.7
2016-12-12T00:03:26.726Z,93.75
2016-12-12T00:03:54.624Z,94.18
2016-12-12T00:04:22.459Z,93.8
2016-12-12T00:04:50.273Z,93.22
2016-12-12T00:05:18.171Z,93.12
2016-12-12T00:05:46.008Z,93.41
2016-12-12T00:06:13.920Z,92.64
2016-12-12T00:06:41.837Z,92.74
2016-12-12T00:07:09.676Z,92.83
2016-12-12T00:07:37.507Z,92.44
2016-12-12T00:08:05.418Z,92.44
2016-12-12T00:08:33.449Z,92.35
2016-12-12T00:09:01.331Z,91.96
2016-12-12T00:09:29.166Z,91.67
2016-12-12T00:09:56.993Z,91.48
2016-12-12T00:10:24.850Z,91.28
2016-12-12T00:10:52.669Z,91.86
2016-12-12T00:11:20.524Z,92.25
2016-12-12T00:11:48.452Z,91.86
2016-12-12T00:12:16.358Z,90.8
2016-12-12T00:12:44.247Z,90.47
2016-12-12T00:13:12.262Z,90.37
2016-12-12T00:13:40.393Z,89.69
2016-12-12T00:14:08.240Z,88.53
2016-12-12T00:14:36.098Z,88.43
2016-12-12T00:15:03.955Z,88.92
2016-12-12T00:15:31.781Z,88.63
2016-12-12T00:15:59.643Z,88.82
2016-12-12T00:16:27.464Z,88.92
2016-12-12T00:16:55.297Z,88.92
2016-12-12T00:17:23.200Z,88.53
2016-12-12T00:17:51.057Z,87.57
2016-12-12T00:18:19.251Z,87.47
2016-12-12T00:18:47.112Z,87.57
2016-12-12T00:19:15.051Z,87.85
2016-12-12T00:19:42.893Z,87.57
2016-12-12T00:20:10.878Z,87.66
2016-12-12T00:20:38.765Z,87.76
2016-12-12T00:21:06.591Z,88.05
2016-12-12T00:21:34.516Z,88.24
2016-12-12T00:22:02.450Z,88.92
2016-12-12T00:22:30.327Z,88.73
2016-12-12T00:22:58.202Z,88.43
2016-12-12T00:23:26.297Z,88.43
2016-12-12T00:23:54.105Z,88.73
2016-12-12T00:24:21.997Z,89.11
2016-12-12T00:24:49.817Z,88.92
2016-12-12T00:25:17.719Z,89.01
2016-12-12T00:25:45.512Z,89.01
2016-12-12T00:26:13.417Z,89.01
2016-12-12T00:26:41.316Z,88.92
2016-12-12T00:27:09.162Z,89.01
2016-12-12T00:27:36.980Z,88.43
2016-12-12T00:28:04.881Z,87.76
2016-12-12T00:28:33.010Z,88.43
2016-12-12T00:29:00.832Z,88.24
2016-12-12T00:29:28.802Z,87.85
2016-12-12T00:29:56.635Z,87.37
2016-12-12T00:30:24.477Z,87.18
2016-12-12T00:30:52.323Z,87.47
2016-12-12T00:31:20.325Z,87.95
2016-12-12T00:31:48.297Z,87.76
2016-12-12T00:32:16.200Z,88.63
2016-12-12T00:32:44.066Z,89.01
2016-12-12T00:33:11.929Z,88.63
2016-12-12T00:33:39.976Z,88.82
2016-12-12T00:34:07.932Z,88.92
2016-12-12T00:34:35.780Z,89.01
2016-12-12T00:35:03.648Z,89.01
2016-12-12T00:35:31.494Z,88.92
2016-12-12T00:35:59.332Z,89.11
2016-12-12T00:36:27.154Z,88.34
2016-12-12T00:36:54.974Z,88.73
2016-12-12T00:37:22.811Z,88.34
2016-12-12T00:37:50.787Z,88.92
2016-12-12T00:38:18.587Z,89.31
2016-12-12T00:39:13.994Z,88.24
2016-12-12T00:39:42.055Z,88.73
2016-12-12T00:40:12.790Z,89.11
2016-12-12T00:40:42.042Z,89.01
2016-12-12T00:41:11.624Z,88.53
2016-12-12T00:41:41.722Z,88.92
2016-12-12T00:42:10.152Z,89.01
2016-12-12T00:42:41.894Z,88.82
2016-12-12T00:43:09.750Z,88.73
2016-12-12T00:43:37.635Z,89.11
2016-12-12T00:44:05.449Z,88.92
2016-12-12T00:44:33.614Z,88.82
2016-12-12T00:45:01.500Z,88.24
2016-12-12T00:45:29.428Z,88.24
2016-12-12T00:45:57.332Z,88.43
2016-12-12T00:46:25.177Z,88.34
2016-12-12T00:46:52.983Z,88.73
2016-12-12T00:47:20.885Z,88.15
2016-12-12T00:47:48.674Z,88.05
2016-12-12T00:48:16.534Z,88.15
2016-12-12T00:48:44.439Z,88.92
2016-12-12T00:49:12.547Z,89.01
2016-12-12T00:49:40.517Z,89.01
2016-12-12T00:50:08.335Z,89.01
2016-12-12T00:50:36.247Z,89.01
2016-12-12T00:51:04.108Z,88.92
2016-12-12T00:51:31.914Z,89.11
2016-12-12T00:51:59.781Z,88.82
2016-12-12T00:52:27.638Z,88.82
2016-12-12T00:52:55.511Z,88.82
2016-12-12T00:53:23.390Z,89.11
2016-12-12T00:53:51.178Z,88.63
2016-12-12T00:54:19.294Z,88.63
2016-12-12T00:54:47.131Z,89.11
2016-12-12T00:55:15.005Z,89.11
2016-12-12T00:55:42.842Z,88.82
2016-12-12T00:56:10.743Z,88.63
2016-12-12T00:56:38.687Z,89.01
2016-12-12T00:57:06.528Z,89.01
2016-12-12T00:57:34.394Z,88.92
2016-12-12T00:58:02.253Z,89.01
2016-12-12T00:58:30.091Z,88.92
2016-12-12T00:58:58.000Z,88.92
2016-12-12T00:59:26.085Z,88.43
2016-12-12T00:59:53.945Z,88.34
2016-12-12T01:00:21.789Z,88.24
2016-12-12T01:00:49.699Z,88.34
2016-12-12T01:01:17.534Z,88.24
2016-12-12T01:01:45.411Z,88.63
2016-12-12T01:02:13.241Z,88.24
2016-12-12T01:02:41.047Z,88.24
2016-12-12T01:03:08.890Z,88.73
2016-12-12T01:03:36.668Z,88.24
2016-12-12T01:04:04.545Z,88.24
2016-12-12T01:04:32.651Z,88.43
2016-12-12T01:05:00.523Z,88.24
2016-12-12T01:05:28.345Z,88.43
2016-12-12T01:05:56.374Z,88.29
2016-12-12T01:06:24.230Z,87.91
2016-12-12T01:06:52.178Z,87.85
2016-12-12T01:07:20.035Z,87.76
2016-12-12T01:07:48.002Z,87.85
2016-12-12T01:08:15.849Z,87.47
2016-12-12T01:08:43.871Z,87.66
2016-12-12T01:09:11.789Z,87.76
2016-12-12T01:09:39.924Z,87.66
2016-12-12T01:10:07.798Z,87.71
2016-12-12T01:10:35.618Z,88.05
2016-12-12T01:11:03.461Z,88.05
2016-12-12T01:11:31.421Z,88.34
2016-12-12T01:11:59.231Z,88.2
2016-12-12T01:12:27.043Z,88.43
2016-12-12T01:12:54.934Z,88.63
2016-12-12T01:13:22.871Z,87.71
2016-12-12T01:13:50.743Z,87.95
2016-12-12T01:14:18.797Z,87.62
2016-12-12T01:14:46.679Z,87.85
2016-12-12T01:15:14.588Z,87.85
2016-12-12T01:15:42.524Z,88.05
2016-12-12T01:16:10.448Z,87.47
2016-12-12T01:16:38.302Z,87.66
2016-12-12T01:17:06.711Z,87.85
2016-12-12T01:17:34.654Z,87.85
2016-12-12T01:18:02.543Z,87.76
2016-12-12T01:18:30.416Z,87.47
2016-12-12T01:18:58.283Z,88.24
2016-12-12T01:19:26.372Z,87.52
2016-12-12T01:19:54.197Z,87.66
2016-12-12T01:20:22.105Z,87.81
2016-12-12T01:20:50.010Z,88.49
2016-12-12T01:21:18.175Z,88.2
2016-12-12T01:21:46.036Z,88.29
2016-12-12T01:22:13.903Z,88.05
2016-12-12T01:22:41.751Z,88.39
2016-12-12T01:23:09.588Z,88.63
2016-12-12T01:23:37.439Z,88.34
2016-12-12T01:24:05.282Z,87.66
2016-12-12T01:24:33.413Z,88.01
2016-12-12T01:25:01.278Z,87.76
2016-12-12T01:25:29.128Z,87.85
2016-12-12T01:25:56.915Z,87.81
2016-12-12T01:26:24.826Z,88.05
2016-12-12T01:26:52.663Z,87.85
2016-12-12T01:27:20.499Z,86.94
2016-12-12T01:27:48.453Z,87.47
2016-12-12T01:28:16.325Z,87.66
2016-12-12T01:28:44.425Z,87.76
2016-12-12T01:29:12.421Z,87.66
2016-12-12T01:29:40.544Z,87.76
2016-12-12T01:30:08.388Z,87.71
2016-12-12T01:30:36.260Z,88.2
2016-12-12T01:31:04.084Z,89.07
2016-12-12T01:31:32.062Z,88.87
2016-12-12T01:31:59.936Z,88.87
2016-12-12T01:32:27.921Z,88.87
2016-12-12T01:32:55.819Z,88.29
2016-12-12T01:33:23.706Z,88.01
2016-12-12T01:33:51.553Z,88.01
2016-12-12T01:34:19.456Z,88.2
2016-12-12T01:34:47.475Z,88.49
2016-12-12T01:35:15.300Z,88.39
2016-12-12T01:35:43.138Z,89.07
2016-12-12T01:36:11.009Z,88.87
2016-12-12T01:36:38.908Z,88.68
2016-12-12T01:37:06.775Z,89.07
2016-12-12T01:37:34.799Z,88.39
2016-12-12T01:38:02.758Z,88.87
2016-12-12T01:38:30.589Z,88.49
2016-12-12T01:38:58.482Z,88.49
2016-12-12T01:39:26.531Z,88.1
2016-12-12T01:39:54.414Z,88.49
2016-12-12T01:40:22.321Z,88.87
2016-12-12T01:40:50.263Z,88.97
2016-12-12T01:41:18.189Z,89.07
2016-12-12T01:41:46.057Z,89.55
2016-12-12T01:42:13.888Z,89.65
2016-12-12T01:42:41.869Z,89.75
2016-12-12T01:43:09.716Z,89.94
2016-12-12T01:43:37.572Z,90.03
2016-12-12T01:44:05.464Z,89.75
2016-12-12T01:44:33.620Z,90.33
2016-12-12T01:45:01.470Z,90.52
2016-12-12T01:45:29.515Z,90.33
2016-12-12T01:45:57.342Z,90.61
2016-12-12T01:46:25.210Z,90.61
2016-12-12T01:46:53.083Z,90.71
2016-12-12T01:47:20.945Z,90.81
2016-12-12T01:47:48.792Z,90.71
2016-12-12T01:48:16.636Z,91.39
2016-12-12T01:48:44.541Z,91.09
2016-12-12T01:49:12.380Z,91.29
2016-12-12T01:49:40.422Z,91.19
2016-12-12T01:50:08.238Z,91.39
2016-12-12T01:50:36.120Z,91.49
2016-12-12T01:51:03.980Z,90.91
2016-12-12T01:51:31.863Z,91.09
2016-12-12T01:51:59.772Z,91.09
2016-12-12T01:52:27.632Z,90.71
2016-12-12T01:52:55.486Z,90.71
2016-12-12T01:53:23.319Z,90.42
2016-12-12T01:53:51.176Z,90.81
2016-12-12T01:54:19.048Z,90.13
2016-12-12T01:54:47.236Z,90.71
2016-12-12T01:55:15.114Z,90.13
2016-12-12T01:55:43.017Z,90.42
2016-12-12T01:56:10.913Z,90.52
2016-12-12T01:56:38.783Z,90.71
2016-12-12T01:57:06.683Z,90.33
2016-12-12T01:57:34.541Z,90.33
2016-12-12T01:58:02.345Z,90.13
2016-12-12T01:58:30.181Z,90.33
2016-12-12T01:58:58.060Z,90.42
2016-12-12T01:59:25.911Z,90.13
2016-12-12T01:59:54.130Z,90.13
2016-12-12T02:00:21.999Z,90.56
2016-12-12T02:00:50.032Z,90.03
2016-12-12T02:01:17.888Z,89.84
2016-12-12T02:01:45.770Z,89.65
2016-12-12T02:02:13.652Z,90.23
2016-12-12T02:02:41.527Z,90.42
2016-12-12T02:03:09.390Z,90.52
2016-12-12T02:03:37.232Z,90.23
2016-12-12T02:04:05.083Z,89.94
2016-12-12T02:04:33.365Z,90.03
2016-12-12T02:05:01.299Z,89.94
2016-12-12T02:05:29.227Z,90.13
2016-12-12T02:05:57.040Z,90.66
2016-12-12T02:06:24.839Z,89.75
2016-12-12T02:06:52.668Z,90.13
2016-12-12T02:07:20.578Z,89.98
2016-12-12T02:07:48.437Z,90.13
2016-12-12T02:08:16.335Z,89.65
2016-12-12T02:08:44.181Z,90.03
2016-12-12T02:09:12.088Z,89.36
2016-12-12T02:09:40.136Z,89.98
2016-12-12T02:10:07.969Z,90.33
2016-12-12T02:10:35.847Z,89.89
2016-12-12T02:11:03.686Z,89.75
2016-12-12T02:11:31.538Z,89.84
2016-12-12T02:11:59.416Z,89.94
2016-12-12T02:12:27.255Z,90.03
2016-12-12T02:12:55.159Z,90.03
2016-12-12T02:13:23.115Z,90.03
2016-12-12T02:13:50.960Z,90.17
2016-12-12T02:14:18.838Z,90.37
2016-12-12T02:14:46.919Z,89.84
2016-12-12T02:15:14.736Z,89.79
2016-12-12T02:15:42.583Z,89.89
2016-12-12T02:16:10.463Z,90.13
2016-12-12T02:16:38.321Z,89.65
2016-12-12T02:17:06.222Z,90.52
2016-12-12T02:17:34.166Z,90.33
2016-12-12T02:18:02.053Z,90.52
2016-12-12T02:18:29.860Z,90.42
2016-12-12T02:18:57.691Z,90.42
2016-12-12T02:19:25.562Z,91.09
2016-12-12T02:19:53.577Z,91.19
2016-12-12T02:20:21.472Z,91.49
2016-12-12T02:20:49.308Z,91.29
2016-12-12T02:21:17.110Z,91.97
2016-12-12T02:21:44.964Z,92.07
2016-12-12T02:22:12.811Z,92.55
2016-12-12T02:22:40.651Z,92.35
2016-12-12T02:23:08.653Z,91.87
2016-12-12T02:23:36.525Z,92.07
2016-12-12T02:24:04.377Z,92.25
2016-12-12T02:24:32.219Z,92.07
2016-12-12T02:25:00.297Z,92.07
2016-12-12T02:25:28.126Z,91.97
2016-12-12T02:25:56.082Z,91.67
2016-12-12T02:26:23.922Z,91.97
2016-12-12T02:26:51.772Z,91.97
2016-12-12T02:27:19.607Z,91.58
2016-12-12T02:27:47.463Z,91.67
2016-12-12T02:28:15.287Z,91.97
2016-12-12T02:28:43.148Z,91.97
2016-12-12T02:29:10.960Z,91.49
2016-12-12T02:29:39.050Z,91.87
2016-12-12T02:30:06.997Z,91.49
2016-12-12T02:30:34.861Z,91.67
2016-12-12T02:31:02.733Z,91.97
2016-12-12T02:31:30.622Z,92.16
2016-12-12T02:31:58.452Z,91.97
2016-12-12T02:32:26.268Z,92.35
2016-12-12T02:32:54.100Z,92.55
2016-12-12T02:33:21.914Z,92.55
2016-12-12T02:33:49.800Z,92.07
2016-12-12T02:34:17.634Z,91.87
2016-12-12T02:34:45.661Z,92.25
2016-12-12T02:35:13.538Z,92.07
2016-12-12T02:35:41.405Z,92.16
2016-12-12T02:36:09.222Z,92.35
2016-12-12T02:36:37.099Z,92.35
2016-12-12T02:37:04.965Z,92.45
2016-12-12T02:37:32.789Z,92.16
2016-12-12T02:38:00.677Z,92.83
2016-12-12T02:38:29.030Z,92.83
2016-12-12T02:38:56.877Z,93.13
2016-12-12T02:39:24.724Z,92.83
2016-12-12T02:39:52.755Z,92.93
2016-12-12T02:40:20.787Z,92.93
2016-12-12T02:40:48.637Z,92.55
2016-12-12T02:41:16.463Z,92.31
2016-12-12T02:41:44.318Z,93.03
2016-12-12T02:42:12.144Z,93.13
2016-12-12T02:42:40.013Z,93.51
2016-12-12T02:43:07.865Z,93.61
2016-12-12T02:43:35.682Z,93.41
2016-12-12T02:44:03.539Z,93.51
2016-12-12T02:44:31.419Z,93.41
2016-12-12T02:44:59.452Z,93.51
2016-12-12T02:45:27.280Z,93.51
2016-12-12T02:45:55.147Z,93.32
2016-12-12T02:46:23.027Z,93.13
2016-12-12T02:46:50.849Z,93.41
2016-12-12T02:47:18.665Z,93.71
2016-12-12T02:47:46.519Z,93.23
2016-12-12T02:48:14.372Z,93.13
2016-12-12T02:48:42.256Z,93.13
2016-12-12T02:49:10.131Z,93.03
2016-12-12T02:49:37.951Z,92.83
2016-12-12T02:50:06.029Z,93.41
2016-12-12T02:50:33.857Z,93.32
2016-12-12T02:51:01.699Z,92.93
2016-12-12T02:51:29.626Z,93.41
2016-12-12T02:51:57.480Z,93.41
2016-12-12T02:52:25.389Z,93.23
2016-12-12T02:52:53.234Z,93.13
2016-12-12T02:53:21.111Z,93.23
2016-12-12T02:53:48.925Z,93.41
2016-12-12T02:54:16.763Z,93.41
2016-12-12T02:54:44.618Z,93.32
2016-12-12T02:55:12.659Z,93.03
2016-12-12T02:55:40.541Z,93.03
2016-12-12T02:56:08.381Z,93.13
2016-12-12T02:56:36.240Z,93.71
2016-12-12T02:57:04.084Z,93.32
2016-12-12T02:57:32.024Z,93.61
2016-12-12T02:57:59.873Z,94.29
2016-12-12T02:58:27.714Z,93.9
2016-12-12T02:58:55.557Z,93.8
2016-12-12T02:59:23.503Z,93.32
2016-12-12T02:59:51.638Z,93.41
2016-12-12T03:00:19.488Z,93.51
2016-12-12T03:00:47.309Z,93.32
2016-12-12T03:01:15.179Z,94.09
2016-12-12T03:01:43.034Z,93.23
2016-12-12T03:02:10.854Z,93.51
2016-12-12T03:02:38.822Z,93.71
2016-12-12T03:03:06.685Z,93.51
2016-12-12T03:03:34.528Z,93.13
2016-12-12T03:04:02.367Z,93.13
2016-12-12T03:04:30.261Z,93.32
2016-12-12T03:04:58.315Z,93.13
2016-12-12T03:05:26.153Z,93.41
2016-12-12T03:05:53.979Z,93.41
2016-12-12T03:06:21.818Z,93.41
2016-12-12T03:06:49.761Z,93.71
2016-12-12T03:07:17.594Z,93.51
2016-12-12T03:07:45.478Z,93.8
2016-12-12T03:08:13.302Z,93.71
2016-12-12T03:08:41.190Z,93.61
2016-12-12T03:09:09.019Z,93.41
2016-12-12T03:09:36.865Z,93.13
2016-12-12T03:10:04.905Z,93.71
2016-12-12T03:10:32.784Z,94.09
2016-12-12T03:11:00.649Z,93.9
2016-12-12T03:11:28.511Z,94.29
2016-12-12T03:11:56.375Z,93.9
2016-12-12T03:12:24.242Z,93.71
2016-12-12T03:12:52.073Z,93.61
2016-12-12T03:13:19.913Z,93.61
2016-12-12T03:13:47.879Z,93.51
2016-12-12T03:14:15.752Z,93.99
2016-12-12T03:14:43.638Z,93.99
2016-12-12T03:15:11.754Z,94.09
2016-12-12T03:15:39.584Z,93.99
2016-12-12T03:16:07.467Z,93.51
2016-12-12T03:16:35.311Z,93.8
2016-12-12T03:17:03.201Z,93.32
2016-12-12T03:17:31.015Z,93.51
2016-12-12T03:17:58.868Z,94.09
2016-12-12T03:18:26.785Z,93.99
2016-12-12T03:18:54.648Z,93.99
2016-12-12T03:19:22.460Z,93.99
2016-12-12T03:19:50.301Z,94.09
2016-12-12T03:20:18.393Z,93.99
2016-12-12T03:20:46.276Z,93.41
2016-12-12T03:21:14.123Z,93.99
2016-12-12T03:21:41.987Z,93.32
2016-12-12T03:22:09.873Z,93.61
2016-12-12T03:22:37.699Z,93.41
2016-12-12T03:23:05.524Z,93.32
2016-12-12T03:23:33.419Z,93.32
2016-12-12T03:24:01.210Z,93.41
2016-12-12T03:24:29.049Z,93.32
2016-12-12T03:24:57.109Z,93.71
2016-12-12T03:25:24.997Z,93.71
2016-12-12T03:25:52.815Z,93.71
2016-12-12T03:26:20.655Z,93.32
2016-12-12T03:26:48.501Z,93.23
2016-12-12T03:27:16.297Z,93.41
2016-12-12T03:27:44.090Z,94.09
2016-12-12T03:28:11.943Z,94.19
2016-12-12T03:28:39.785Z,93.51
2016-12-12T03:29:07.625Z,93.9
2016-12-12T03:29:35.433Z,93.51
2016-12-12T03:30:03.550Z,93.32
2016-12-12T03:30:31.421Z,93.51
2016-12-12T03:30:59.291Z,93.61
2016-12-12T03:31:27.125Z,93.41
2016-12-12T03:31:54.966Z,93.13
2016-12-12T03:32:22.789Z,93.71
2016-12-12T03:32:50.653Z,93.61
2016-12-12T03:33:18.475Z,93.51
2016-12-12T03:33:46.322Z,93.32
2016-12-12T03:34:14.255Z,93.51
2016-12-12T03:34:42.078Z,93.41
2016-12-12T03:35:10.136Z,93.32
2016-12-12T03:35:37.970Z,93.61
2016-12-12T03:36:05.766Z,93.41
2016-12-12T03:36:33.611Z,93.41
2016-12-12T03:37:01.479Z,93.61
2016-12-12T03:37:29.367Z,93.03
2016-12-12T03:37:57.207Z,93.23
2016-12-12T03:38:25.173Z,92.74
2016-12-12T03:38:53.108Z,92.93
2016-12-12T03:39:21.026Z,93.03
2016-12-12T03:39:48.915Z,92.55
2016-12-12T03:40:16.950Z,92.35
2016-12-12T03:40:44.815Z,92.93
2016-12-12T03:41:12.696Z,93.13
2016-12-12T03:41:40.482Z,93.41
2016-12-12T03:42:08.332Z,93.32
2016-12-12T03:42:36.228Z,93.03
2016-12-12T03:43:04.097Z,93.32
2016-12-12T03:43:31.935Z,93.61
2016-12-12T03:43:59.792Z,93.71
2016-12-12T03:44:27.627Z,93.71
2016-12-12T03:44:55.437Z,94.29
2016-12-12T03:45:23.620Z,94.19
2016-12-12T03:45:51.500Z,93.9
2016-12-12T03:46:19.370Z,93.51
2016-12-12T03:46:47.215Z,93.51
2016-12-12T03:47:15.106Z,93.41
2016-12-12T03:47:42.952Z,94.09
2016-12-12T03:48:10.796Z,93.71
2016-12-12T03:48:38.623Z,93.9
2016-12-12T03:49:06.471Z,94.09
2016-12-12T03:49:34.302Z,93.99
2016-12-12T03:50:02.141Z,93.9
2016-12-12T03:50:30.222Z,93.99
2016-12-12T03:50:58.053Z,94.09
2016-12-12T03:51:25.871Z,94.96
2016-12-12T03:51:53.673Z,95.06
2016-12-12T03:52:21.529Z,94.48
2016-12-12T03:52:49.472Z,95.06
2016-12-12T03:53:17.342Z,95.06
2016-12-12T03:53:45.235Z,94.87
2016-12-12T03:54:13.043Z,94.57
2016-12-12T03:54:40.966Z,95.25
2016-12-12T03:55:08.852Z,94.57
2016-12-12T03:55:36.904Z,94.48
2016-12-12T03:56:04.768Z,95.15
2016-12-12T03:56:32.590Z,94.96
2016-12-12T03:57:00.424Z,94.48
2016-12-12T03:57:28.228Z,94.19
2016-12-12T03:57:56.156Z,94.48
2016-12-12T03:58:24.086Z,94.19
2016-12-12T03:58:51.930Z,94.48
2016-12-12T03:59:19.797Z,94.48
2016-12-12T03:59:47.626Z,95.06
2016-12-12T04:00:15.699Z,94.96
2016-12-12T04:00:43.530Z,94.96
2016-12-12T04:01:11.355Z,94.77
2016-12-12T04:01:39.215Z,95.06
2016-12-12T04:02:07.129Z,95.06
2016-12-12T04:02:34.994Z,94.67
2016-12-12T04:03:02.937Z,94.67
2016-12-12T04:03:30.865Z,94.67
2016-12-12T04:03:58.743Z,94.67
2016-12-12T04:04:26.564Z,95.06
2016-12-12T04:04:54.433Z,94.38
2016-12-12T04:05:22.461Z,94.77
2016-12-12T04:05:50.290Z,95.06
2016-12-12T04:06:18.155Z,94.77
2016-12-12T04:06:46.002Z,94.96
2016-12-12T04:07:13.976Z,95.06
2016-12-12T04:07:41.833Z,95.35
2016-12-12T04:08:09.656Z,95.45
2016-12-12T04:08:37.500Z,95.54
2016-12-12T04:09:05.333Z,95.45
2016-12-12T04:09:33.193Z,95.93
2016-12-12T04:10:01.030Z,95.45
2016-12-12T04:10:29.080Z,95.45
2016-12-12T04:10:57.038Z,96.22
2016-12-12T04:11:24.920Z,96.12
2016-12-12T04:11:52.767Z,95.54
2016-12-12T04:12:20.607Z,95.35
2016-12-12T04:12:48.510Z,95.45
2016-12-12T04:13:16.332Z,95.45
2016-12-12T04:13:44.196Z,95.45
2016-12-12T04:14:12.060Z,95.83
2016-12-12T04:14:39.894Z,95.73
2016-12-12T04:15:07.751Z,95.54
2016-12-12T04:15:35.793Z,95.15
2016-12-12T04:16:03.676Z,95.15
2016-12-12T04:16:31.548Z,95.45
2016-12-12T04:16:59.359Z,95.54
2016-12-12T04:17:27.235Z,95.64
2016-12-12T04:17:55.138Z,95.83
2016-12-12T04:18:22.967Z,95.93
2016-12-12T04:18:50.822Z,95.54
2016-12-12T04:19:18.676Z,95.54
2016-12-12T04:19:46.533Z,95.45
2016-12-12T04:20:14.382Z,95.45
2016-12-12T04:20:42.558Z,95.25
2016-12-12T04:21:10.496Z,95.93
2016-12-12T04:21:38.440Z,95.83
2016-12-12T04:22:06.288Z,95.83
2016-12-12T04:22:34.170Z,95.83
2016-12-12T04:23:02.005Z,95.93
2016-12-12T04:23:29.870Z,96.51
2016-12-12T04:23:57.903Z,96.41
2016-12-12T04:24:25.796Z,96.89
2016-12-12T04:24:53.808Z,96.7
2016-12-12T04:25:21.633Z,96.31
2016-12-12T04:25:49.718Z,96.61
2016-12-12T04:26:17.571Z,96.7
2016-12-12T04:26:45.516Z,96.99
2016-12-12T04:27:13.375Z,96.89
2016-12-12T04:27:41.169Z,96.89
2016-12-12T04:28:09.022Z,96.8
2016-12-12T04:28:36.866Z,96.61
2016-12-12T04:29:04.715Z,96.8
2016-12-12T04:29:32.580Z,96.61
2016-12-12T04:30:00.409Z,96.8
2016-12-12T04:30:28.491Z,96.22
2016-12-12T04:30:56.333Z,96.8
2016-12-12T04:31:24.211Z,96.8
2016-12-12T04:31:52.048Z,96.8
2016-12-12T04:32:19.886Z,96.7
2016-12-12T04:32:47.746Z,96.61
2016-12-12T04:33:15.597Z,96.8
2016-12-12T04:33:43.470Z,96.89
2016-12-12T04:34:11.316Z,96.89
2016-12-12T04:34:39.128Z,96.51
2016-12-12T04:35:06.985Z,96.7
2016-12-12T04:35:35.116Z,96.89
2016-12-12T04:36:02.939Z,96.41
2016-12-12T04:36:30.823Z,96.22
2016-12-12T04:36:58.715Z,96.8
2016-12-12T04:37:26.568Z,96.41
2016-12-12T04:37:54.389Z,96.99
2016-12-12T04:38:22.267Z,96.89
2016-12-12T04:38:50.113Z,96.7
2016-12-12T04:39:18.054Z,96.8
2016-12-12T04:39:45.884Z,96.8
2016-12-12T04:40:13.764Z,96.7
2016-12-12T04:40:41.808Z,96.89
2016-12-12T04:41:09.694Z,96.41
2016-12-12T04:41:37.666Z,97.09
2016-12-12T04:42:05.555Z,97.38
2016-12-12T04:42:33.511Z,97.38
2016-12-12T04:43:01.356Z,97.19
2016-12-12T04:43:29.229Z,96.61
2016-12-12T04:43:57.037Z,97.38
2016-12-12T04:44:24.854Z,96.7
2016-12-12T04:44:52.676Z,96.8
2016-12-12T04:45:20.500Z,97.57
2016-12-12T04:45:48.859Z,96.61
2016-12-12T04:46:16.792Z,96.8
2016-12-12T04:46:44.670Z,96.61
2016-12-12T04:47:12.530Z,96.61
2016-12-12T04:47:40.392Z,96.61
2016-12-12T04:48:08.227Z,96.51
2016-12-12T04:48:36.154Z,96.51
2016-12-12T04:49:04.043Z,96.22
2016-12-12T04:49:31.949Z,96.51
2016-12-12T04:49:59.791Z,96.31
2016-12-12T04:50:27.647Z,96.41
2016-12-12T04:50:55.722Z,96.51
2016-12-12T04:51:23.517Z,96.51
2016-12-12T04:51:51.336Z,96.8
2016-12-12T04:52:19.155Z,96.61
2016-12-12T04:52:46.978Z,96.56
2016-12-12T04:53:14.936Z,96.89
2016-12-12T04:53:42.801Z,96.66
2016-12-12T04:54:10.636Z,96.7
2016-12-12T04:54:38.441Z,96.7
2016-12-12T04:55:06.261Z,96.99
2016-12-12T04:55:34.382Z,96.7
2016-12-12T04:56:02.240Z,96.8
2016-12-12T04:56:30.091Z,96.8
2016-12-12T04:56:57.949Z,96.8
2016-12-12T04:57:25.799Z,96.89
2016-12-12T04:57:53.774Z,96.8
2016-12-12T04:58:21.637Z,96.8
2016-12-12T04:58:49.495Z,96.51
2016-12-12T04:59:17.323Z,96.41
2016-12-12T04:59:45.215Z,96.41
2016-12-12T05:00:13.067Z,96.41
2016-12-12T05:00:41.114Z,96.51
2016-12-12T05:01:08.959Z,96.41
2016-12-12T05:01:36.839Z,95.73
2016-12-12T05:02:04.702Z,96.41
2016-12-12T05:02:32.539Z,96.61
2016-12-12T05:03:00.421Z,96.51
2016-12-12T05:03:28.393Z,96.41
2016-12-12T05:03:56.305Z,96.03
2016-12-12T05:04:24.188Z,96.03
2016-12-12T05:04:52.029Z,95.73
2016-12-12T05:05:19.886Z,95.93
2016-12-12T05:05:47.965Z,96.03
2016-12-12T05:06:15.835Z,95.73
2016-12-12T05:06:43.694Z,95.73
2016-12-12T05:07:11.521Z,95.93
2016-12-12T05:07:39.338Z,96.03
2016-12-12T05:08:07.138Z,95.73
2016-12-12T05:08:35.037Z,96.31
2016-12-12T05:09:02.883Z,96.31
2016-12-12T05:09:30.743Z,96.31
2016-12-12T05:09:58.609Z,96.41
2016-12-12T05:10:26.441Z,96.7
2016-12-12T05:10:54.533Z,96.89
2016-12-12T05:11:22.356Z,96.7
2016-12-12T05:11:50.158Z,96.22
2016-12-12T05:12:18.008Z,96.17
2016-12-12T05:12:45.852Z,96.61
2016-12-12T05:13:13.667Z,96.61
2016-12-12T05:13:41.606Z,96.31
2016-12-12T05:14:09.465Z,96.31
2016-12-12T05:14:37.340Z,96.41
2016-12-12T05:15:05.200Z,96.41
2016-12-12T05:15:33.038Z,96.46
2016-12-12T05:16:01.059Z,96.31
2016-12-12T05:16:28.907Z,96.89
2016-12-12T05:16:56.811Z,96.8
2016-12-12T05:17:24.616Z,96.89
2016-12-12T05:17:52.486Z,96.89
2016-12-12T05:18:20.401Z,96.8
2016-12-12T05:18:48.244Z,97.28
2016-12-12T05:19:16.081Z,97.38
2016-12-12T05:19:43.919Z,97.09
2016-12-12T05:20:11.726Z,96.99
2016-12-12T05:20:39.832Z,96.7
2016-12-12T05:21:07.689Z,97.47
2016-12-12T05:21:35.549Z,96.99
2016-12-12T05:22:03.424Z,97.47
2016-12-12T05:22:31.267Z,96.8
2016-12-12T05:22:59.135Z,96.61
2016-12-12T05:23:27.049Z,96.8
2016-12-12T05:23:54.882Z,96.7
2016-12-12T05:24:22.696Z,96.61
2016-12-12T05:24:50.511Z,96.8
2016-12-12T05:25:18.377Z,96.8
2016-12-12T05:25:46.440Z,96.89
2016-12-12T05:26:14.351Z,96.22
2016-12-12T05:26:42.173Z,96.8
2016-12-12T05:27:10.030Z,96.61
2016-12-12T05:27:37.899Z,96.61
2016-12-12T05:28:05.717Z,96.41
2016-12-12T05:28:33.549Z,96.66
2016-12-12T05:29:01.348Z,97.09
2016-12-12T05:29:29.179Z,96.84
2016-12-12T05:29:57.128Z,97.19
2016-12-12T05:30:25.031Z,97.28
2016-12-12T05:30:53.217Z,97.14
2016-12-12T05:31:21.141Z,97.24
2016-12-12T05:31:49.035Z,97.42
2016-12-12T05:32:16.992Z,97.52
2016-12-12T05:32:44.944Z,97.52
2016-12-12T05:33:12.787Z,97.52
2016-12-12T05:33:40.759Z,97.52
2016-12-12T05:34:08.666Z,97.62
2016-12-12T05:34:36.644Z,97.81
2016-12-12T05:35:04.595Z,97.52
2016-12-12T05:35:32.455Z,97.81
2016-12-12T05:36:00.549Z,97.14
2016-12-12T05:36:28.508Z,97.14
2016-12-12T05:36:56.426Z,97.04
2016-12-12T05:37:24.256Z,97.42
2016-12-12T05:37:52.708Z,97.24
2016-12-12T05:38:20.706Z,97.81
2016-12-12T05:38:48.516Z,97.62
2016-12-12T05:39:16.480Z,97.72
2016-12-12T05:39:44.314Z,97.42
2016-12-12T05:40:12.137Z,97.52
2016-12-12T05:40:40.050Z,97.72
2016-12-12T05:41:08.320Z,97.42
2016-12-12T05:41:36.288Z,97.42
2016-12-12T05:42:04.125Z,97.14
2016-12-12T05:42:32.043Z,97.52
2016-12-12T05:42:59.881Z,97.14
2016-12-12T05:43:27.745Z,97.52
2016-12-12T05:43:55.586Z,97.14
2016-12-12T05:44:23.402Z,97.33
2016-12-12T05:44:51.260Z,97.33
2016-12-12T05:45:19.300Z,97.24
2016-12-12T05:45:47.482Z,97.33
2016-12-12T05:46:15.278Z,97.19
2016-12-12T05:46:43.121Z,96.61
2016-12-12T05:47:10.964Z,96.56
2016-12-12T05:47:38.774Z,96.56
2016-12-12T05:48:06.645Z,96.56
2016-12-12T05:48:34.531Z,96.56
2016-12-12T05:49:02.326Z,96.7
2016-12-12T05:49:30.171Z,96.8
2016-12-12T05:49:57.993Z,96.36
2016-12-12T05:50:25.845Z,96.41
2016-12-12T05:50:53.840Z,96.75
2016-12-12T05:51:21.761Z,96.84
2016-12-12T05:51:49.600Z,96.84
2016-12-12T05:52:17.430Z,96.75
2016-12-12T05:52:45.290Z,96.46
2016-12-12T05:53:13.122Z,96.56
2016-12-12T05:53:41.014Z,96.75
2016-12-12T05:54:08.887Z,96.66
2016-12-12T05:54:36.759Z,96.36
2016-12-12T05:55:04.588Z,97.14
2016-12-12T05:55:32.387Z,97.14
2016-12-12T05:56:00.389Z,97.33
2016-12-12T05:56:28.236Z,97.24
2016-12-12T05:56:56.061Z,96.84
2016-12-12T05:57:23.927Z,96.56
2016-12-12T05:57:51.791Z,96.7
2016-12-12T05:58:19.737Z,96.56
2016-12-12T05:58:47.601Z,96.8
2016-12-12T05:59:15.465Z,96.41
2016-12-12T05:59:43.312Z,96.89
2016-12-12T06:00:11.169Z,96.66
2016-12-12T06:00:39.011Z,97.38